VOI1200 MGGT-MMUN
Flight info
| Callsign | VOI1200 |
|---|---|
| Flight time | 1h 16m |
| Altitude | 35000 |
| Route | AUR DCT VILDA DCT JERON DCT AMINU DCT CTM UG765 PAULE PAULE3G |
| Aircraft | A21N/M-SDE2E3FGHIRWXY/LB1 |
Departure
| Time | 2026-04-20 17:16 |
|---|---|
| Airport | La Aurora International Airport (MGGT) |
Arrival
| Time | 2026-04-20 18:33 |
|---|---|
| Airport | Cancún International Airport (MMUN) |
| Time | Latitude | Longitude | Altitude | Speed | Heading |
|---|---|---|---|---|---|
| 2026-04-20 17:08 | 14.58773 | -90.52940 | 4900 ft | 0 kts | 281° |
| 2026-04-20 17:10 | 14.58772 | -90.52936 | 4893 ft | 1 kts | 281° |
| 2026-04-20 17:11 | 14.58770 | -90.52924 | 4894 ft | 2 kts | 281° |
| 2026-04-20 17:11 | 14.58767 | -90.52906 | 4895 ft | 3 kts | 280° |
| 2026-04-20 17:11 | 14.58762 | -90.52879 | 4890 ft | 4 kts | 280° |
| 2026-04-20 17:11 | 14.58756 | -90.52846 | 4897 ft | 5 kts | 277° |
| 2026-04-20 17:12 | 14.58757 | -90.52823 | 4898 ft | 1 kts | 220° |
| 2026-04-20 17:12 | 14.58759 | -90.52822 | 4897 ft | 0 kts | 211° |
| 2026-04-20 17:12 | 14.58745 | -90.52824 | 4891 ft | 2 kts | 165° |
| 2026-04-20 17:12 | 14.58725 | -90.52798 | 4898 ft | 10 kts | 125° |
| 2026-04-20 17:13 | 14.58680 | -90.52728 | 4897 ft | 12 kts | 134° |
| 2026-04-20 17:13 | 14.58611 | -90.52722 | 4895 ft | 12 kts | 195° |
| 2026-04-20 17:13 | 14.58476 | -90.52769 | 4889 ft | 24 kts | 202° |
| 2026-04-20 17:13 | 14.58310 | -90.52823 | 4887 ft | 26 kts | 197° |
| 2026-04-20 17:14 | 14.58128 | -90.52876 | 4882 ft | 28 kts | 196° |
| 2026-04-20 17:14 | 14.57933 | -90.52940 | 4879 ft | 31 kts | 196° |
| 2026-04-20 17:14 | 14.57692 | -90.53020 | 4870 ft | 43 kts | 194° |
| 2026-04-20 17:14 | 14.57397 | -90.53114 | 4860 ft | 45 kts | 198° |
| 2026-04-20 17:15 | 14.57163 | -90.53187 | 4853 ft | 20 kts | 197° |
| 2026-04-20 17:15 | 14.57064 | -90.53160 | 4850 ft | 8 kts | 101° |
| 2026-04-20 17:15 | 14.57077 | -90.53142 | 4853 ft | 4 kts | 20° |
| 2026-04-20 17:15 | 14.57099 | -90.53135 | 4851 ft | 3 kts | 17° |
| 2026-04-20 17:16 | 14.57305 | -90.53073 | 4857 ft | 74 kts | 16° |
| 2026-04-20 17:16 | 14.58111 | -90.52820 | 4886 ft | 163 kts | 17° |
| 2026-04-20 17:16 | 14.59276 | -90.52407 | 5547 ft | 186 kts | 19° |
| 2026-04-20 17:16 | 14.60534 | -90.51896 | 6490 ft | 205 kts | 23° |
| 2026-04-20 17:17 | 14.61962 | -90.51390 | 7142 ft | 236 kts | 14° |
| 2026-04-20 17:17 | 14.63678 | -90.51154 | 7649 ft | 261 kts | 0° |
| 2026-04-20 17:17 | 14.65492 | -90.51536 | 8141 ft | 273 kts | 336° |
| 2026-04-20 17:17 | 14.66973 | -90.52797 | 8639 ft | 283 kts | 313° |
| 2026-04-20 17:18 | 14.68396 | -90.54202 | 9111 ft | 283 kts | 332° |
| 2026-04-20 17:18 | 14.70307 | -90.54745 | 9625 ft | 297 kts | 3° |
| 2026-04-20 17:18 | 14.72307 | -90.54151 | 10272 ft | 309 kts | 32° |
| 2026-04-20 17:18 | 14.73976 | -90.52661 | 10766 ft | 327 kts | 46° |
| 2026-04-20 17:19 | 14.75543 | -90.50876 | 11247 ft | 343 kts | 50° |
| 2026-04-20 17:19 | 14.77106 | -90.48978 | 11728 ft | 349 kts | 50° |
| 2026-04-20 17:19 | 14.78714 | -90.47066 | 12188 ft | 354 kts | 50° |
| 2026-04-20 17:19 | 14.80377 | -90.45174 | 12682 ft | 357 kts | 48° |
| 2026-04-20 17:20 | 14.82092 | -90.43305 | 13180 ft | 360 kts | 47° |
| 2026-04-20 17:20 | 14.83852 | -90.41450 | 13687 ft | 363 kts | 47° |
| 2026-04-20 17:20 | 14.85647 | -90.39593 | 14178 ft | 367 kts | 46° |
| 2026-04-20 17:20 | 14.87466 | -90.37726 | 14629 ft | 370 kts | 46° |
| 2026-04-20 17:21 | 14.89300 | -90.35845 | 15092 ft | 374 kts | 46° |
| 2026-04-20 17:21 | 14.91155 | -90.33944 | 15556 ft | 376 kts | 46° |
| 2026-04-20 17:21 | 14.93019 | -90.32029 | 16035 ft | 379 kts | 46° |
| 2026-04-20 17:21 | 14.94898 | -90.30096 | 16499 ft | 384 kts | 46° |
| 2026-04-20 17:22 | 14.96812 | -90.28124 | 17001 ft | 392 kts | 46° |
| 2026-04-20 17:22 | 14.98753 | -90.26119 | 17498 ft | 397 kts | 46° |
| 2026-04-20 17:22 | 15.00715 | -90.24092 | 18006 ft | 400 kts | 46° |
| 2026-04-20 17:22 | 15.02664 | -90.22078 | 18507 ft | 402 kts | 46° |
| 2026-04-20 17:23 | 15.04647 | -90.20030 | 18946 ft | 403 kts | 46° |
| 2026-04-20 17:23 | 15.06633 | -90.17975 | 19390 ft | 404 kts | 46° |
| 2026-04-20 17:23 | 15.08648 | -90.15945 | 19838 ft | 403 kts | 43° |
| 2026-04-20 17:23 | 15.10866 | -90.14168 | 20294 ft | 404 kts | 35° |
| 2026-04-20 17:24 | 15.13262 | -90.12642 | 20751 ft | 406 kts | 31° |
| 2026-04-20 17:24 | 15.15733 | -90.11217 | 21230 ft | 407 kts | 30° |
| 2026-04-20 17:24 | 15.18248 | -90.09851 | 21711 ft | 410 kts | 28° |
| 2026-04-20 17:24 | 15.20793 | -90.08509 | 22202 ft | 412 kts | 28° |
| 2026-04-20 17:25 | 15.23356 | -90.07168 | 22721 ft | 414 kts | 28° |
| 2026-04-20 17:25 | 15.25931 | -90.05817 | 23214 ft | 416 kts | 27° |
| 2026-04-20 17:25 | 15.28514 | -90.04453 | 23733 ft | 418 kts | 28° |
| 2026-04-20 17:25 | 15.31111 | -90.03072 | 24169 ft | 421 kts | 27° |
| 2026-04-20 17:26 | 15.33723 | -90.01678 | 24611 ft | 424 kts | 27° |
| 2026-04-20 17:26 | 15.36355 | -90.00270 | 25056 ft | 427 kts | 27° |
| 2026-04-20 17:26 | 15.39006 | -89.98849 | 25488 ft | 430 kts | 27° |
| 2026-04-20 17:26 | 15.41677 | -89.97417 | 25943 ft | 433 kts | 27° |
| 2026-04-20 17:27 | 15.44359 | -89.95979 | 26411 ft | 435 kts | 27° |
| 2026-04-20 17:27 | 15.47053 | -89.94534 | 26885 ft | 437 kts | 27° |
| 2026-04-20 17:27 | 15.49758 | -89.93084 | 27367 ft | 438 kts | 27° |
| 2026-04-20 17:27 | 15.52466 | -89.91631 | 27833 ft | 439 kts | 27° |
| 2026-04-20 17:28 | 15.55148 | -89.90192 | 28324 ft | 439 kts | 27° |
| 2026-04-20 17:28 | 15.57864 | -89.88734 | 28830 ft | 439 kts | 27° |
| 2026-04-20 17:28 | 15.60578 | -89.87277 | 29345 ft | 439 kts | 27° |
| 2026-04-20 17:28 | 15.63288 | -89.85821 | 29862 ft | 439 kts | 27° |
| 2026-04-20 17:29 | 15.65995 | -89.84367 | 30373 ft | 438 kts | 27° |
| 2026-04-20 17:29 | 15.68699 | -89.82914 | 30816 ft | 437 kts | 26° |
| 2026-04-20 17:29 | 15.71401 | -89.81462 | 31277 ft | 436 kts | 26° |
| 2026-04-20 17:29 | 15.74091 | -89.80015 | 31746 ft | 435 kts | 26° |
| 2026-04-20 17:30 | 15.76779 | -89.78569 | 32227 ft | 434 kts | 26° |
| 2026-04-20 17:30 | 15.79458 | -89.77127 | 32695 ft | 433 kts | 26° |
| 2026-04-20 17:30 | 15.82131 | -89.75688 | 33189 ft | 431 kts | 26° |
| 2026-04-20 17:30 | 15.84786 | -89.74258 | 33690 ft | 429 kts | 26° |
| 2026-04-20 17:31 | 15.87426 | -89.72836 | 34197 ft | 426 kts | 26° |
| 2026-04-20 17:31 | 15.90049 | -89.71424 | 34645 ft | 423 kts | 26° |
| 2026-04-20 17:31 | 15.92623 | -89.70036 | 35003 ft | 422 kts | 26° |
| 2026-04-20 17:31 | 15.95247 | -89.68622 | 35113 ft | 429 kts | 26° |
| 2026-04-20 17:32 | 15.97920 | -89.67183 | 35126 ft | 437 kts | 26° |
| 2026-04-20 17:32 | 16.03432 | -89.64214 | 35129 ft | 455 kts | 26° |
| 2026-04-20 17:33 | 16.09160 | -89.61123 | 35120 ft | 472 kts | 26° |
| 2026-04-20 17:33 | 16.15052 | -89.57940 | 35116 ft | 479 kts | 26° |
| 2026-04-20 17:34 | 16.20971 | -89.54738 | 35113 ft | 479 kts | 26° |
| 2026-04-20 17:34 | 16.26885 | -89.51538 | 35099 ft | 479 kts | 26° |
| 2026-04-20 17:35 | 16.32811 | -89.48330 | 35097 ft | 479 kts | 26° |
| 2026-04-20 17:35 | 16.38722 | -89.45128 | 35097 ft | 479 kts | 26° |
| 2026-04-20 17:36 | 16.44632 | -89.41924 | 35097 ft | 478 kts | 26° |
| 2026-04-20 17:36 | 16.50493 | -89.38746 | 35086 ft | 478 kts | 26° |
| 2026-04-20 17:37 | 16.56400 | -89.35540 | 35084 ft | 478 kts | 26° |
| 2026-04-20 17:37 | 16.62304 | -89.32334 | 35086 ft | 478 kts | 26° |
| 2026-04-20 17:38 | 16.68208 | -89.29125 | 35091 ft | 478 kts | 26° |
| 2026-04-20 17:38 | 16.74109 | -89.25915 | 35096 ft | 478 kts | 25° |
| 2026-04-20 17:39 | 16.80015 | -89.22700 | 35101 ft | 478 kts | 25° |
| 2026-04-20 17:39 | 16.85911 | -89.19488 | 35101 ft | 478 kts | 25° |
| 2026-04-20 17:40 | 16.91807 | -89.16276 | 35107 ft | 478 kts | 25° |
| 2026-04-20 17:40 | 16.97699 | -89.13063 | 35104 ft | 478 kts | 25° |
| 2026-04-20 17:41 | 17.03547 | -89.09871 | 35106 ft | 478 kts | 25° |
| 2026-04-20 17:41 | 17.09445 | -89.06649 | 35101 ft | 479 kts | 25° |
| 2026-04-20 17:42 | 17.15348 | -89.03423 | 35093 ft | 479 kts | 25° |
| 2026-04-20 17:42 | 17.21256 | -89.00192 | 35084 ft | 479 kts | 25° |
| 2026-04-20 17:43 | 17.27168 | -88.96956 | 35093 ft | 479 kts | 25° |
| 2026-04-20 17:43 | 17.33122 | -88.93823 | 35082 ft | 479 kts | 23° |
| 2026-04-20 17:44 | 17.39114 | -88.90787 | 35072 ft | 478 kts | 23° |
| 2026-04-20 17:44 | 17.45101 | -88.87757 | 35074 ft | 477 kts | 23° |
| 2026-04-20 17:45 | 17.51073 | -88.84717 | 35072 ft | 477 kts | 23° |
| 2026-04-20 17:45 | 17.57025 | -88.81675 | 35068 ft | 475 kts | 23° |
| 2026-04-20 17:46 | 17.62927 | -88.78655 | 35063 ft | 475 kts | 23° |
| 2026-04-20 17:46 | 17.68871 | -88.75612 | 35060 ft | 475 kts | 23° |
| 2026-04-20 17:47 | 17.74815 | -88.72567 | 35068 ft | 475 kts | 23° |
| 2026-04-20 17:47 | 17.80768 | -88.69516 | 35063 ft | 477 kts | 23° |
| 2026-04-20 17:48 | 17.85733 | -88.66968 | 35059 ft | 477 kts | 23° |
| 2026-04-20 17:48 | 17.91698 | -88.63906 | 35060 ft | 477 kts | 23° |
| 2026-04-20 17:49 | 17.97670 | -88.60837 | 35061 ft | 477 kts | 24° |
| 2026-04-20 17:49 | 18.03641 | -88.57768 | 35065 ft | 477 kts | 24° |
| 2026-04-20 17:50 | 18.09604 | -88.54700 | 35065 ft | 477 kts | 24° |
| 2026-04-20 17:50 | 18.15533 | -88.51647 | 35068 ft | 477 kts | 24° |
| 2026-04-20 17:51 | 18.21504 | -88.48571 | 35071 ft | 477 kts | 24° |
| 2026-04-20 17:51 | 18.27470 | -88.45493 | 35074 ft | 477 kts | 23° |
| 2026-04-20 17:52 | 18.33440 | -88.42413 | 35093 ft | 478 kts | 23° |
| 2026-04-20 17:52 | 18.39412 | -88.39328 | 35101 ft | 478 kts | 23° |
| 2026-04-20 17:53 | 18.45388 | -88.36239 | 35112 ft | 479 kts | 23° |
| 2026-04-20 17:53 | 18.51307 | -88.32992 | 35111 ft | 482 kts | 31° |
| 2026-04-20 17:54 | 18.56935 | -88.29143 | 35109 ft | 482 kts | 31° |
| 2026-04-20 17:54 | 18.62495 | -88.25258 | 35107 ft | 483 kts | 31° |
| 2026-04-20 17:55 | 18.68087 | -88.21333 | 35100 ft | 483 kts | 31° |
| 2026-04-20 17:55 | 18.73681 | -88.17401 | 35085 ft | 483 kts | 31° |
| 2026-04-20 17:56 | 18.79267 | -88.13470 | 35078 ft | 482 kts | 30° |
| 2026-04-20 17:56 | 18.84831 | -88.09553 | 35075 ft | 480 kts | 30° |
| 2026-04-20 17:57 | 18.90394 | -88.05633 | 35078 ft | 480 kts | 31° |
| 2026-04-20 17:57 | 18.95910 | -88.01743 | 35075 ft | 479 kts | 31° |
| 2026-04-20 17:58 | 19.01454 | -87.97830 | 35072 ft | 479 kts | 31° |
| 2026-04-20 17:58 | 19.07003 | -87.93910 | 35077 ft | 479 kts | 31° |
| 2026-04-20 17:59 | 19.12544 | -87.89992 | 35080 ft | 480 kts | 30° |
| 2026-04-20 17:59 | 19.18111 | -87.86054 | 35078 ft | 481 kts | 30° |
| 2026-04-20 18:00 | 19.23674 | -87.82114 | 35078 ft | 481 kts | 30° |
| 2026-04-20 18:00 | 19.29242 | -87.78168 | 35083 ft | 481 kts | 30° |
| 2026-04-20 18:01 | 19.34819 | -87.74213 | 34900 ft | 484 kts | 30° |
| 2026-04-20 18:01 | 19.37585 | -87.72250 | 34478 ft | 486 kts | 30° |
| 2026-04-20 18:01 | 19.40395 | -87.70256 | 34030 ft | 487 kts | 30° |
| 2026-04-20 18:01 | 19.43215 | -87.68253 | 33512 ft | 486 kts | 30° |
| 2026-04-20 18:02 | 19.46015 | -87.66264 | 33022 ft | 484 kts | 30° |
| 2026-04-20 18:02 | 19.48810 | -87.64277 | 32513 ft | 482 kts | 30° |
| 2026-04-20 18:02 | 19.51593 | -87.62296 | 32024 ft | 480 kts | 30° |
| 2026-04-20 18:02 | 19.54353 | -87.60331 | 31527 ft | 477 kts | 30° |
| 2026-04-20 18:03 | 19.57100 | -87.58374 | 31068 ft | 474 kts | 31° |
| 2026-04-20 18:03 | 19.59829 | -87.56431 | 30602 ft | 471 kts | 31° |
| 2026-04-20 18:03 | 19.62538 | -87.54501 | 30144 ft | 468 kts | 31° |
| 2026-04-20 18:03 | 19.65236 | -87.52577 | 29613 ft | 465 kts | 31° |
| 2026-04-20 18:04 | 19.67913 | -87.50668 | 29088 ft | 462 kts | 31° |
| 2026-04-20 18:04 | 19.70533 | -87.48799 | 28445 ft | 458 kts | 31° |
| 2026-04-20 18:04 | 19.73168 | -87.46919 | 27695 ft | 455 kts | 31° |
| 2026-04-20 18:04 | 19.75787 | -87.45049 | 26962 ft | 451 kts | 31° |
| 2026-04-20 18:05 | 19.80915 | -87.41255 | 25348 ft | 451 kts | 39° |
| 2026-04-20 18:05 | 19.83030 | -87.38800 | 24653 ft | 450 kts | 50° |
| 2026-04-20 18:05 | 19.84893 | -87.36168 | 24258 ft | 439 kts | 52° |
| 2026-04-20 18:06 | 19.86659 | -87.33590 | 24101 ft | 423 kts | 52° |
| 2026-04-20 18:06 | 19.88381 | -87.31074 | 24086 ft | 421 kts | 52° |
| 2026-04-20 18:06 | 19.90108 | -87.28561 | 24086 ft | 421 kts | 52° |
| 2026-04-20 18:06 | 19.91835 | -87.26052 | 24085 ft | 421 kts | 52° |
| 2026-04-20 18:07 | 19.93568 | -87.23537 | 24086 ft | 421 kts | 52° |
| 2026-04-20 18:07 | 19.95299 | -87.21026 | 24031 ft | 420 kts | 52° |
| 2026-04-20 18:07 | 19.97026 | -87.18520 | 23817 ft | 419 kts | 52° |
| 2026-04-20 18:07 | 19.98725 | -87.16054 | 23593 ft | 418 kts | 52° |
| 2026-04-20 18:08 | 20.00441 | -87.13563 | 23332 ft | 417 kts | 52° |
| 2026-04-20 18:08 | 20.02150 | -87.11081 | 23070 ft | 415 kts | 52° |
| 2026-04-20 18:08 | 20.03850 | -87.08612 | 22814 ft | 413 kts | 52° |
| 2026-04-20 18:08 | 20.05540 | -87.06155 | 22564 ft | 411 kts | 52° |
| 2026-04-20 18:09 | 20.07223 | -87.03708 | 22307 ft | 408 kts | 52° |
| 2026-04-20 18:09 | 20.08896 | -87.01275 | 22046 ft | 406 kts | 52° |
| 2026-04-20 18:09 | 20.10564 | -86.98848 | 21812 ft | 404 kts | 52° |
| 2026-04-20 18:09 | 20.12219 | -86.96439 | 21573 ft | 403 kts | 52° |
| 2026-04-20 18:10 | 20.13875 | -86.94027 | 21326 ft | 403 kts | 52° |
| 2026-04-20 18:10 | 20.15525 | -86.91624 | 21086 ft | 401 kts | 52° |
| 2026-04-20 18:10 | 20.17168 | -86.89229 | 20848 ft | 399 kts | 52° |
| 2026-04-20 18:10 | 20.18802 | -86.86846 | 20606 ft | 397 kts | 52° |
| 2026-04-20 18:11 | 20.20428 | -86.84474 | 20367 ft | 396 kts | 52° |
| 2026-04-20 18:11 | 20.22050 | -86.82112 | 20164 ft | 394 kts | 52° |
| 2026-04-20 18:11 | 20.23674 | -86.79763 | 20090 ft | 393 kts | 52° |
| 2026-04-20 18:11 | 20.25293 | -86.77423 | 20084 ft | 392 kts | 52° |
| 2026-04-20 18:12 | 20.26910 | -86.75086 | 19875 ft | 391 kts | 52° |
| 2026-04-20 18:12 | 20.28521 | -86.72756 | 19538 ft | 389 kts | 52° |
| 2026-04-20 18:12 | 20.30122 | -86.70440 | 19199 ft | 387 kts | 52° |
| 2026-04-20 18:12 | 20.31692 | -86.68167 | 18870 ft | 385 kts | 52° |
| 2026-04-20 18:13 | 20.33275 | -86.65875 | 18530 ft | 382 kts | 53° |
| 2026-04-20 18:13 | 20.34840 | -86.63608 | 18173 ft | 377 kts | 52° |
| 2026-04-20 18:13 | 20.36399 | -86.61416 | 17778 ft | 364 kts | 47° |
| 2026-04-20 18:13 | 20.38324 | -86.59754 | 17300 ft | 353 kts | 26° |
| 2026-04-20 18:14 | 20.40645 | -86.59087 | 16801 ft | 344 kts | 1° |
| 2026-04-20 18:14 | 20.42983 | -86.59425 | 16313 ft | 337 kts | 345° |
| 2026-04-20 18:14 | 20.45218 | -86.60111 | 15839 ft | 332 kts | 343° |
| 2026-04-20 18:14 | 20.47411 | -86.60817 | 15365 ft | 327 kts | 344° |
| 2026-04-20 18:15 | 20.49577 | -86.61494 | 14893 ft | 322 kts | 345° |
| 2026-04-20 18:15 | 20.51715 | -86.62141 | 14429 ft | 318 kts | 345° |
| 2026-04-20 18:15 | 20.53835 | -86.62770 | 13984 ft | 314 kts | 346° |
| 2026-04-20 18:15 | 20.55936 | -86.63383 | 13486 ft | 312 kts | 346° |
| 2026-04-20 18:16 | 20.58025 | -86.63988 | 12979 ft | 310 kts | 346° |
| 2026-04-20 18:16 | 20.60110 | -86.64590 | 12398 ft | 310 kts | 346° |
| 2026-04-20 18:16 | 20.62183 | -86.65188 | 12060 ft | 307 kts | 345° |
| 2026-04-20 18:16 | 20.64244 | -86.65782 | 11987 ft | 307 kts | 346° |
| 2026-04-20 18:17 | 20.66307 | -86.66375 | 11981 ft | 307 kts | 346° |
| 2026-04-20 18:17 | 20.68340 | -86.66960 | 11981 ft | 306 kts | 345° |
| 2026-04-20 18:17 | 20.70399 | -86.67553 | 11907 ft | 305 kts | 346° |
| 2026-04-20 18:17 | 20.72421 | -86.68135 | 11512 ft | 299 kts | 345° |
| 2026-04-20 18:18 | 20.74421 | -86.68711 | 11043 ft | 297 kts | 345° |
| 2026-04-20 18:18 | 20.76409 | -86.69284 | 10576 ft | 295 kts | 345° |
| 2026-04-20 18:18 | 20.78387 | -86.69854 | 10118 ft | 293 kts | 345° |
| 2026-04-20 18:18 | 20.80353 | -86.70421 | 9610 ft | 291 kts | 345° |
| 2026-04-20 18:19 | 20.82237 | -86.71165 | 9163 ft | 287 kts | 328° |
| 2026-04-20 18:19 | 20.83636 | -86.72590 | 8989 ft | 271 kts | 307° |
| 2026-04-20 18:19 | 20.84697 | -86.74192 | 8989 ft | 260 kts | 303° |
| 2026-04-20 18:19 | 20.85693 | -86.75798 | 8996 ft | 259 kts | 302° |
| 2026-04-20 18:20 | 20.86687 | -86.77406 | 8910 ft | 259 kts | 303° |
| 2026-04-20 18:20 | 20.87676 | -86.79001 | 8617 ft | 256 kts | 303° |
| 2026-04-20 18:20 | 20.88665 | -86.80587 | 8132 ft | 255 kts | 303° |
| 2026-04-20 18:20 | 20.89648 | -86.82161 | 7650 ft | 254 kts | 303° |
| 2026-04-20 18:21 | 20.90616 | -86.83707 | 7181 ft | 253 kts | 303° |
| 2026-04-20 18:21 | 20.91605 | -86.85287 | 6704 ft | 251 kts | 303° |
| 2026-04-20 18:21 | 20.92562 | -86.86813 | 6250 ft | 249 kts | 304° |
| 2026-04-20 18:21 | 20.93524 | -86.88350 | 6027 ft | 249 kts | 304° |
| 2026-04-20 18:22 | 20.94486 | -86.89887 | 5999 ft | 249 kts | 304° |
| 2026-04-20 18:22 | 20.95448 | -86.91422 | 5958 ft | 248 kts | 304° |
| 2026-04-20 18:22 | 20.96401 | -86.92945 | 5643 ft | 244 kts | 304° |
| 2026-04-20 18:22 | 20.97340 | -86.94445 | 5168 ft | 242 kts | 305° |
| 2026-04-20 18:23 | 20.98271 | -86.95935 | 4671 ft | 240 kts | 305° |
| 2026-04-20 18:23 | 20.99197 | -86.97418 | 4211 ft | 238 kts | 305° |
| 2026-04-20 18:23 | 21.00106 | -86.98871 | 4012 ft | 231 kts | 305° |
| 2026-04-20 18:23 | 21.00996 | -87.00294 | 3994 ft | 229 kts | 306° |
| 2026-04-20 18:24 | 21.01885 | -87.01711 | 3979 ft | 229 kts | 306° |
| 2026-04-20 18:24 | 21.02762 | -87.03112 | 3691 ft | 224 kts | 306° |
| 2026-04-20 18:24 | 21.03625 | -87.04496 | 3323 ft | 223 kts | 307° |
| 2026-04-20 18:24 | 21.04482 | -87.05867 | 2948 ft | 220 kts | 308° |
| 2026-04-20 18:25 | 21.05324 | -87.07214 | 2583 ft | 216 kts | 307° |
| 2026-04-20 18:25 | 21.06158 | -87.08547 | 2209 ft | 214 kts | 306° |
| 2026-04-20 18:25 | 21.06978 | -87.09860 | 2017 ft | 211 kts | 307° |
| 2026-04-20 18:25 | 21.07794 | -87.11169 | 1990 ft | 211 kts | 308° |
| 2026-04-20 18:26 | 21.08710 | -87.12315 | 1977 ft | 193 kts | 323° |
| 2026-04-20 18:26 | 21.09836 | -87.12991 | 1981 ft | 183 kts | 347° |
| 2026-04-20 18:26 | 21.11082 | -87.13053 | 1988 ft | 179 kts | 14° |
| 2026-04-20 18:26 | 21.12182 | -87.12500 | 1977 ft | 176 kts | 37° |
| 2026-04-20 18:27 | 21.13032 | -87.11573 | 1987 ft | 178 kts | 51° |
| 2026-04-20 18:27 | 21.13769 | -87.10509 | 1991 ft | 178 kts | 55° |
| 2026-04-20 18:27 | 21.14459 | -87.09418 | 1992 ft | 177 kts | 58° |
| 2026-04-20 18:27 | 21.14938 | -87.08243 | 1995 ft | 169 kts | 72° |
| 2026-04-20 18:28 | 21.15073 | -87.07001 | 1990 ft | 170 kts | 91° |
| 2026-04-20 18:28 | 21.14787 | -87.05768 | 1992 ft | 173 kts | 109° |
| 2026-04-20 18:28 | 21.14211 | -87.04635 | 1989 ft | 173 kts | 118° |
| 2026-04-20 18:28 | 21.13549 | -87.03561 | 1988 ft | 173 kts | 120° |
| 2026-04-20 18:29 | 21.12877 | -87.02488 | 1989 ft | 174 kts | 120° |
| 2026-04-20 18:29 | 21.12199 | -87.01409 | 1945 ft | 175 kts | 121° |
| 2026-04-20 18:29 | 21.11539 | -87.00360 | 1643 ft | 166 kts | 120° |
| 2026-04-20 18:29 | 21.10907 | -86.99355 | 1338 ft | 157 kts | 118° |
| 2026-04-20 18:30 | 21.10312 | -86.98396 | 1289 ft | 154 kts | 120° |
| 2026-04-20 18:30 | 21.09720 | -86.97439 | 1289 ft | 154 kts | 119° |
| 2026-04-20 18:30 | 21.09135 | -86.96496 | 1297 ft | 154 kts | 120° |
| 2026-04-20 18:30 | 21.08542 | -86.95542 | 1298 ft | 154 kts | 120° |
| 2026-04-20 18:31 | 21.07946 | -86.94589 | 1252 ft | 153 kts | 119° |
| 2026-04-20 18:31 | 21.07366 | -86.93661 | 1056 ft | 146 kts | 118° |
| 2026-04-20 18:31 | 21.06810 | -86.92766 | 864 ft | 144 kts | 118° |
| 2026-04-20 18:31 | 21.06257 | -86.91876 | 677 ft | 144 kts | 120° |
| 2026-04-20 18:32 | 21.05711 | -86.90999 | 479 ft | 139 kts | 120° |
| 2026-04-20 18:32 | 21.05180 | -86.90137 | 324 ft | 139 kts | 120° |
| 2026-04-20 18:32 | 21.04637 | -86.89274 | 182 ft | 142 kts | 126° |
| 2026-04-20 18:32 | 21.04108 | -86.88426 | 38 ft | 130 kts | 122° |
| 2026-04-20 18:33 | 21.03651 | -86.87681 | 29 ft | 95 kts | 117° |
| 2026-04-20 18:33 | 21.03604 | -86.87378 | 27 ft | 0 kts | 61° |
| 2026-04-20 18:34 | 21.03623 | -86.87355 | 24 ft | 10 kts | 37° |
| 2026-04-20 18:34 | 21.03671 | -86.87292 | 23 ft | 13 kts | 96° |
| 2026-04-20 18:34 | 21.03634 | -86.87210 | 26 ft | 0 kts | 103° |
| 2026-04-20 18:34 | 21.03635 | -86.87197 | 24 ft | 0 kts | 77° |
| 2026-04-20 18:35 | 21.03665 | -86.87163 | 25 ft | 11 kts | 42° |
| 2026-04-20 18:35 | 21.03685 | -86.87149 | 23 ft | 0 kts | 34° |
| 2026-04-20 18:35 | 21.03686 | -86.87148 | 23 ft | 0 kts | 34° |